sensor_id;sensor_type;location;lat;lon;timestamp;temperature;humidity
31735;DHT22;18313;48.518;9.124;2022-07-23T00:02:07;22.60;99.90
31735;DHT22;18313;48.518;9.124;2022-07-23T00:04:54;22.50;99.90
31735;DHT22;18313;48.518;9.124;2022-07-23T00:07:41;22.50;99.90
31735;DHT22;18313;48.518;9.124;2022-07-23T00:10:28;22.40;99.90
31735;DHT22;18313;48.518;9.124;2022-07-23T00:13:15;22.40;99.90
31735;DHT22;18313;48.518;9.124;2022-07-23T00:16:02;22.50;99.90
31735;DHT22;18313;48.518;9.124;2022-07-23T00:18:50;22.50;99.90
31735;DHT22;18313;48.518;9.124;2022-07-23T00:21:37;22.40;99.90
31735;DHT22;18313;48.518;9.124;2022-07-23T00:24:24;22.40;99.90
31735;DHT22;18313;48.518;9.124;2022-07-23T00:27:10;22.50;99.90
31735;DHT22;18313;48.518;9.124;2022-07-23T00:29:57;22.50;99.90
31735;DHT22;18313;48.518;9.124;2022-07-23T00:32:53;22.50;99.90
31735;DHT22;18313;48.518;9.124;2022-07-23T00:35:42;22.50;99.90
31735;DHT22;18313;48.518;9.124;2022-07-23T00:38:29;22.60;99.90
31735;DHT22;18313;48.518;9.124;2022-07-23T00:41:16;22.60;99.90
31735;DHT22;18313;48.518;9.124;2022-07-23T00:44:21;22.50;99.90
31735;DHT22;18313;48.518;9.124;2022-07-23T00:47:08;22.50;99.90
31735;DHT22;18313;48.518;9.124;2022-07-23T00:49:55;22.30;99.90
31735;DHT22;18313;48.518;9.124;2022-07-23T00:52:42;22.30;99.90
31735;DHT22;18313;48.518;9.124;2022-07-23T00:55:29;22.30;99.90
31735;DHT22;18313;48.518;9.124;2022-07-23T00:58:16;22.30;99.90
31735;DHT22;18313;48.518;9.124;2022-07-23T01:01:03;22.40;99.90
31735;DHT22;18313;48.518;9.124;2022-07-23T01:03:39;22.30;99.90
31735;DHT22;18313;48.518;9.124;2022-07-23T01:06:26;22.10;99.90
31735;DHT22;18313;48.518;9.124;2022-07-23T01:09:13;22.10;99.90
31735;DHT22;18313;48.518;9.124;2022-07-23T01:12:00;22.00;99.90
31735;DHT22;18313;48.518;9.124;2022-07-23T01:14:58;22.00;99.90
31735;DHT22;18313;48.518;9.124;2022-07-23T01:17:45;21.90;99.90
31735;DHT22;18313;48.518;9.124;2022-07-23T01:20:33;21.90;99.90
31735;DHT22;18313;48.518;9.124;2022-07-23T01:23:20;21.90;99.90
31735;DHT22;18313;48.518;9.124;2022-07-23T01:26:07;22.00;99.90
31735;DHT22;18313;48.518;9.124;2022-07-23T01:28:57;21.90;99.90
31735;DHT22;18313;48.518;9.124;2022-07-23T01:31:44;21.80;99.90
31735;DHT22;18313;48.518;9.124;2022-07-23T01:34:31;21.70;99.90
31735;DHT22;18313;48.518;9.124;2022-07-23T01:37:18;21.70;99.90
31735;DHT22;18313;48.518;9.124;2022-07-23T01:40:05;21.70;99.90
31735;DHT22;18313;48.518;9.124;2022-07-23T01:42:52;21.60;99.90
31735;DHT22;18313;48.518;9.124;2022-07-23T01:45:40;21.60;99.90
31735;DHT22;18313;48.518;9.124;2022-07-23T01:48:26;21.60;99.90
31735;DHT22;18313;48.518;9.124;2022-07-23T01:51:13;21.70;99.90
31735;DHT22;18313;48.518;9.124;2022-07-23T01:54:00;21.70;99.90
31735;DHT22;18313;48.518;9.124;2022-07-23T01:56:47;21.60;99.90
31735;DHT22;18313;48.518;9.124;2022-07-23T01:59:35;21.50;99.90
31735;DHT22;18313;48.518;9.124;2022-07-23T02:02:22;21.50;99.90
31735;DHT22;18313;48.518;9.124;2022-07-23T02:05:09;21.70;99.90
31735;DHT22;18313;48.518;9.124;2022-07-23T02:07:56;21.70;99.90
31735;DHT22;18313;48.518;9.124;2022-07-23T02:10:44;21.70;99.90
31735;DHT22;18313;48.518;9.124;2022-07-23T02:13:30;21.70;99.90
31735;DHT22;18313;48.518;9.124;2022-07-23T02:16:20;21.50;99.90
31735;DHT22;18313;48.518;9.124;2022-07-23T02:19:07;21.40;99.90
31735;DHT22;18313;48.518;9.124;2022-07-23T02:21:53;21.40;99.90
31735;DHT22;18313;48.518;9.124;2022-07-23T02:24:41;21.40;99.90
31735;DHT22;18313;48.518;9.124;2022-07-23T02:27:28;21.40;99.90
31735;DHT22;18313;48.518;9.124;2022-07-23T02:30:15;21.40;99.90
31735;DHT22;18313;48.518;9.124;2022-07-23T02:33:01;21.30;99.90
31735;DHT22;18313;48.518;9.124;2022-07-23T02:35:48;21.20;99.90
31735;DHT22;18313;48.518;9.124;2022-07-23T02:38:35;21.20;99.90
31735;DHT22;18313;48.518;9.124;2022-07-23T02:41:22;21.20;99.90
31735;DHT22;18313;48.518;9.124;2022-07-23T02:44:10;21.10;99.90
31735;DHT22;18313;48.518;9.124;2022-07-23T02:46:57;21.10;99.90
31735;DHT22;18313;48.518;9.124;2022-07-23T02:49:44;21.10;99.90
31735;DHT22;18313;48.518;9.124;2022-07-23T02:52:31;21.10;99.90
31735;DHT22;18313;48.518;9.124;2022-07-23T02:55:17;21.00;99.90
31735;DHT22;18313;48.518;9.124;2022-07-23T02:58:04;20.90;99.90
31735;DHT22;18313;48.518;9.124;2022-07-23T03:00:52;21.00;99.90
31735;DHT22;18313;48.518;9.124;2022-07-23T03:03:39;21.10;99.90
31735;DHT22;18313;48.518;9.124;2022-07-23T03:06:26;21.10;99.90
31735;DHT22;18313;48.518;9.124;2022-07-23T03:09:13;21.10;99.90
31735;DHT22;18313;48.518;9.124;2022-07-23T03:12:00;21.10;99.90
31735;DHT22;18313;48.518;9.124;2022-07-23T03:14:47;21.10;99.90
31735;DHT22;18313;48.518;9.124;2022-07-23T03:17:34;21.00;99.90
31735;DHT22;18313;48.518;9.124;2022-07-23T03:20:21;21.00;99.90
31735;DHT22;18313;48.518;9.124;2022-07-23T03:23:07;21.00;99.90
31735;DHT22;18313;48.518;9.124;2022-07-23T03:25:54;21.00;99.90
31735;DHT22;18313;48.518;9.124;2022-07-23T03:28:41;20.80;99.90
31735;DHT22;18313;48.518;9.124;2022-07-23T03:31:28;20.70;99.90
31735;DHT22;18313;48.518;9.124;2022-07-23T03:34:15;20.60;99.90
31735;DHT22;18313;48.518;9.124;2022-07-23T03:37:05;20.50;99.90
31735;DHT22;18313;48.518;9.124;2022-07-23T03:39:51;20.50;99.90
31735;DHT22;18313;48.518;9.124;2022-07-23T03:42:38;20.40;99.90
31735;DHT22;18313;48.518;9.124;2022-07-23T03:45:28;20.40;99.90
31735;DHT22;18313;48.518;9.124;2022-07-23T03:48:15;20.30;99.90
31735;DHT22;18313;48.518;9.124;2022-07-23T03:51:02;20.20;99.90
31735;DHT22;18313;48.518;9.124;2022-07-23T03:53:49;20.20;99.90
31735;DHT22;18313;48.518;9.124;2022-07-23T03:56:36;20.10;99.90
31735;DHT22;18313;48.518;9.124;2022-07-23T03:59:23;20.10;99.90
31735;DHT22;18313;48.518;9.124;2022-07-23T04:02:10;20.00;99.90
31735;DHT22;18313;48.518;9.124;2022-07-23T04:04:57;20.10;99.90
31735;DHT22;18313;48.518;9.124;2022-07-23T04:07:44;20.10;99.90
31735;DHT22;18313;48.518;9.124;2022-07-23T04:10:31;20.00;99.90
31735;DHT22;18313;48.518;9.124;2022-07-23T04:13:17;20.00;99.90
31735;DHT22;18313;48.518;9.124;2022-07-23T04:16:05;20.10;99.90
31735;DHT22;18313;48.518;9.124;2022-07-23T04:18:53;20.10;99.90
31735;DHT22;18313;48.518;9.124;2022-07-23T04:21:40;20.20;99.90
31735;DHT22;18313;48.518;9.124;2022-07-23T04:24:26;20.20;99.90
31735;DHT22;18313;48.518;9.124;2022-07-23T04:27:13;20.20;99.90
31735;DHT22;18313;48.518;9.124;2022-07-23T04:30:00;20.30;99.90
31735;DHT22;18313;48.518;9.124;2022-07-23T04:32:47;20.20;99.90
31735;DHT22;18313;48.518;9.124;2022-07-23T04:35:35;20.20;99.90
31735;DHT22;18313;48.518;9.124;2022-07-23T04:38:22;20.30;99.90
31735;DHT22;18313;48.518;9.124;2022-07-23T04:41:09;20.30;99.90
31735;DHT22;18313;48.518;9.124;2022-07-23T04:43:56;20.40;99.90
31735;DHT22;18313;48.518;9.124;2022-07-23T04:46:42;20.30;99.90
31735;DHT22;18313;48.518;9.124;2022-07-23T04:49:29;20.40;99.90
31735;DHT22;18313;48.518;9.124;2022-07-23T04:52:16;20.60;99.90
31735;DHT22;18313;48.518;9.124;2022-07-23T04:55:04;20.80;99.90
31735;DHT22;18313;48.518;9.124;2022-07-23T04:57:51;21.00;99.90
31735;DHT22;18313;48.518;9.124;2022-07-23T05:00:38;21.40;99.90
31735;DHT22;18313;48.518;9.124;2022-07-23T05:03:27;21.60;99.90
31735;DHT22;18313;48.518;9.124;2022-07-23T05:06:15;21.60;99.90
31735;DHT22;18313;48.518;9.124;2022-07-23T05:09:02;21.60;99.90
31735;DHT22;18313;48.518;9.124;2022-07-23T05:11:49;21.50;99.90
31735;DHT22;18313;48.518;9.124;2022-07-23T05:14:36;21.50;99.90
31735;DHT22;18313;48.518;9.124;2022-07-23T05:17:23;21.40;99.90
31735;DHT22;18313;48.518;9.124;2022-07-23T05:20:10;21.50;99.90
31735;DHT22;18313;48.518;9.124;2022-07-23T05:22:57;21.50;99.90
31735;DHT22;18313;48.518;9.124;2022-07-23T05:25:44;21.60;99.90
31735;DHT22;18313;48.518;9.124;2022-07-23T05:28:31;21.60;99.90
31735;DHT22;18313;48.518;9.124;2022-07-23T05:31:18;21.60;99.90
31735;DHT22;18313;48.518;9.124;2022-07-23T05:34:05;21.50;99.90
31735;DHT22;18313;48.518;9.124;2022-07-23T05:36:52;21.40;99.90
31735;DHT22;18313;48.518;9.124;2022-07-23T05:39:38;21.40;99.90
31735;DHT22;18313;48.518;9.124;2022-07-23T05:42:25;21.40;99.90
31735;DHT22;18313;48.518;9.124;2022-07-23T05:45:12;21.40;99.90
31735;DHT22;18313;48.518;9.124;2022-07-23T05:47:59;21.50;99.90
31735;DHT22;18313;48.518;9.124;2022-07-23T05:50:46;21.60;99.90
31735;DHT22;18313;48.518;9.124;2022-07-23T05:53:34;21.80;99.90
31735;DHT22;18313;48.518;9.124;2022-07-23T05:56:21;22.10;99.90
31735;DHT22;18313;48.518;9.124;2022-07-23T05:59:08;22.20;99.90
31735;DHT22;18313;48.518;9.124;2022-07-23T06:01:55;22.30;99.90
31735;DHT22;18313;48.518;9.124;2022-07-23T06:04:43;22.50;99.90
31735;DHT22;18313;48.518;9.124;2022-07-23T06:07:30;22.70;99.90
31735;DHT22;18313;48.518;9.124;2022-07-23T06:10:16;22.90;99.90
31735;DHT22;18313;48.518;9.124;2022-07-23T06:13:04;23.10;99.90
31735;DHT22;18313;48.518;9.124;2022-07-23T06:15:51;23.30;99.90
31735;DHT22;18313;48.518;9.124;2022-07-23T06:18:38;23.40;99.90
31735;DHT22;18313;48.518;9.124;2022-07-23T06:21:24;23.60;99.90
31735;DHT22;18313;48.518;9.124;2022-07-23T06:24:32;23.60;99.90
31735;DHT22;18313;48.518;9.124;2022-07-23T06:27:18;23.90;99.90
31735;DHT22;18313;48.518;9.124;2022-07-23T06:30:12;23.90;99.90
31735;DHT22;18313;48.518;9.124;2022-07-23T06:32:59;24.10;99.90
31735;DHT22;18313;48.518;9.124;2022-07-23T06:35:46;24.20;99.90
31735;DHT22;18313;48.518;9.124;2022-07-23T06:38:33;24.30;99.90
31735;DHT22;18313;48.518;9.124;2022-07-23T06:41:20;24.40;99.90
31735;DHT22;18313;48.518;9.124;2022-07-23T06:44:06;24.60;99.90
31735;DHT22;18313;48.518;9.124;2022-07-23T06:46:53;24.80;99.90
31735;DHT22;18313;48.518;9.124;2022-07-23T06:49:40;24.90;99.90
31735;DHT22;18313;48.518;9.124;2022-07-23T06:52:27;25.00;99.90
31735;DHT22;18313;48.518;9.124;2022-07-23T06:55:14;25.20;99.90
31735;DHT22;18313;48.518;9.124;2022-07-23T06:58:01;25.30;99.90
31735;DHT22;18313;48.518;9.124;2022-07-23T07:00:48;25.40;99.90
31735;DHT22;18313;48.518;9.124;2022-07-23T07:03:35;25.50;99.90
31735;DHT22;18313;48.518;9.124;2022-07-23T07:06:22;25.70;99.90
31735;DHT22;18313;48.518;9.124;2022-07-23T07:09:10;25.80;99.90
31735;DHT22;18313;48.518;9.124;2022-07-23T07:11:57;26.00;99.90
31735;DHT22;18313;48.518;9.124;2022-07-23T07:14:44;26.10;99.80
31735;DHT22;18313;48.518;9.124;2022-07-23T07:17:31;26.20;99.60
31735;DHT22;18313;48.518;9.124;2022-07-23T07:20:18;26.40;99.30
31735;DHT22;18313;48.518;9.124;2022-07-23T07:23:05;26.50;98.90
31735;DHT22;18313;48.518;9.124;2022-07-23T07:25:52;26.60;98.60
31735;DHT22;18313;48.518;9.124;2022-07-23T07:28:39;26.70;98.30
31735;DHT22;18313;48.518;9.124;2022-07-23T07:31:26;26.90;97.80
31735;DHT22;18313;48.518;9.124;2022-07-23T07:34:13;27.10;97.50
31735;DHT22;18313;48.518;9.124;2022-07-23T07:37:03;27.00;97.40
31735;DHT22;18313;48.518;9.124;2022-07-23T07:39:50;27.00;96.70
31735;DHT22;18313;48.518;9.124;2022-07-23T07:42:47;26.90;97.50
31735;DHT22;18313;48.518;9.124;2022-07-23T07:45:34;26.70;97.50
31735;DHT22;18313;48.518;9.124;2022-07-23T07:48:21;26.70;97.00
31735;DHT22;18313;48.518;9.124;2022-07-23T07:51:08;26.80;97.50
31735;DHT22;18313;48.518;9.124;2022-07-23T07:53:56;27.20;96.70
31735;DHT22;18313;48.518;9.124;2022-07-23T07:56:42;27.50;95.40
31735;DHT22;18313;48.518;9.124;2022-07-23T07:59:29;27.40;94.30
31735;DHT22;18313;48.518;9.124;2022-07-23T08:02:19;27.50;95.00
31735;DHT22;18313;48.518;9.124;2022-07-23T08:05:07;27.50;96.50
31735;DHT22;18313;48.518;9.124;2022-07-23T08:07:56;27.70;96.00
31735;DHT22;18313;48.518;9.124;2022-07-23T08:10:43;27.70;96.10
31735;DHT22;18313;48.518;9.124;2022-07-23T08:13:30;27.80;96.50
31735;DHT22;18313;48.518;9.124;2022-07-23T08:16:17;27.80;96.10
31735;DHT22;18313;48.518;9.124;2022-07-23T08:19:04;27.70;95.60
31735;DHT22;18313;48.518;9.124;2022-07-23T08:21:51;27.50;96.30
31735;DHT22;18313;48.518;9.124;2022-07-23T08:24:38;27.40;95.70
31735;DHT22;18313;48.518;9.124;2022-07-23T08:27:25;27.30;96.20
31735;DHT22;18313;48.518;9.124;2022-07-23T08:30:12;27.30;96.10
31735;DHT22;18313;48.518;9.124;2022-07-23T08:33:04;27.10;95.60
31735;DHT22;18313;48.518;9.124;2022-07-23T08:35:53;27.10;95.50
31735;DHT22;18313;48.518;9.124;2022-07-23T08:38:39;27.30;95.80
31735;DHT22;18313;48.518;9.124;2022-07-23T08:41:26;27.40;95.90
31735;DHT22;18313;48.518;9.124;2022-07-23T08:44:14;27.70;96.60
31735;DHT22;18313;48.518;9.124;2022-07-23T08:47:02;27.90;95.40
31735;DHT22;18313;48.518;9.124;2022-07-23T08:49:49;28.10;94.80
31735;DHT22;18313;48.518;9.124;2022-07-23T08:52:38;28.30;94.30
31735;DHT22;18313;48.518;9.124;2022-07-23T08:55:26;28.30;94.40
31735;DHT22;18313;48.518;9.124;2022-07-23T08:58:14;28.30;94.00
31735;DHT22;18313;48.518;9.124;2022-07-23T09:01:01;28.30;94.30
31735;DHT22;18313;48.518;9.124;2022-07-23T09:03:48;28.30;94.00
31735;DHT22;18313;48.518;9.124;2022-07-23T09:06:38;28.20;93.80
31735;DHT22;18313;48.518;9.124;2022-07-23T09:09:25;28.10;94.30
31735;DHT22;18313;48.518;9.124;2022-07-23T09:12:16;27.90;94.40
31735;DHT22;18313;48.518;9.124;2022-07-23T09:15:08;27.90;95.00
31735;DHT22;18313;48.518;9.124;2022-07-23T09:17:55;28.10;94.50
31735;DHT22;18313;48.518;9.124;2022-07-23T09:20:43;28.20;94.30
31735;DHT22;18313;48.518;9.124;2022-07-23T09:26:45;28.70;93.10
31735;DHT22;18313;48.518;9.124;2022-07-23T09:29:39;28.80;93.90
31735;DHT22;18313;48.518;9.124;2022-07-23T09:32:25;29.10;93.60
31735;DHT22;18313;48.518;9.124;2022-07-23T09:35:12;29.30;93.20
31735;DHT22;18313;48.518;9.124;2022-07-23T09:38:02;29.70;92.90
31735;DHT22;18313;48.518;9.124;2022-07-23T09:41:09;30.00;92.80
31735;DHT22;18313;48.518;9.124;2022-07-23T09:43:56;30.30;92.00
31735;DHT22;18313;48.518;9.124;2022-07-23T09:46:47;30.50;91.40
31735;DHT22;18313;48.518;9.124;2022-07-23T09:49:34;30.90;90.70
31735;DHT22;18313;48.518;9.124;2022-07-23T09:52:33;30.90;91.00
31735;DHT22;18313;48.518;9.124;2022-07-23T09:55:31;30.90;90.90
31735;DHT22;18313;48.518;9.124;2022-07-23T09:58:25;31.00;90.60
31735;DHT22;18313;48.518;9.124;2022-07-23T10:01:14;31.20;90.10
31735;DHT22;18313;48.518;9.124;2022-07-23T10:04:01;31.00;88.30
31735;DHT22;18313;48.518;9.124;2022-07-23T10:06:52;30.60;90.10
31735;DHT22;18313;48.518;9.124;2022-07-23T10:09:40;30.30;89.60
31735;DHT22;18313;48.518;9.124;2022-07-23T10:12:28;30.50;90.90
31735;DHT22;18313;48.518;9.124;2022-07-23T10:15:20;30.70;90.70
31735;DHT22;18313;48.518;9.124;2022-07-23T10:18:10;30.40;90.40
31735;DHT22;18313;48.518;9.124;2022-07-23T10:21:00;30.00;90.40
31735;DHT22;18313;48.518;9.124;2022-07-23T10:23:58;29.50;90.90
31735;DHT22;18313;48.518;9.124;2022-07-23T10:29:57;30.10;91.10
31735;DHT22;18313;48.518;9.124;2022-07-23T10:39:05;30.20;90.20
31735;DHT22;18313;48.518;9.124;2022-07-23T10:41:52;30.30;90.80
31735;DHT22;18313;48.518;9.124;2022-07-23T10:44:43;30.70;89.60
31735;DHT22;18313;48.518;9.124;2022-07-23T10:47:32;31.00;87.70
31735;DHT22;18313;48.518;9.124;2022-07-23T10:50:33;30.90;87.30
31735;DHT22;18313;48.518;9.124;2022-07-23T10:53:22;30.80;88.50
31735;DHT22;18313;48.518;9.124;2022-07-23T10:56:13;30.80;89.60
31735;DHT22;18313;48.518;9.124;2022-07-23T10:59:03;31.00;88.70
31735;DHT22;18313;48.518;9.124;2022-07-23T11:01:51;31.40;86.20
31735;DHT22;18313;48.518;9.124;2022-07-23T11:04:49;31.80;85.10
31735;DHT22;18313;48.518;9.124;2022-07-23T11:13:44;32.10;83.80
31735;DHT22;18313;48.518;9.124;2022-07-23T11:16:46;32.50;83.10
31735;DHT22;18313;48.518;9.124;2022-07-23T11:22:58;32.50;81.70
31735;DHT22;18313;48.518;9.124;2022-07-23T11:25:46;32.40;85.20
31735;DHT22;18313;48.518;9.124;2022-07-23T11:28:33;32.50;83.80
31735;DHT22;18313;48.518;9.124;2022-07-23T11:31:20;32.70;82.50
31735;DHT22;18313;48.518;9.124;2022-07-23T11:34:43;33.00;82.10
31735;DHT22;18313;48.518;9.124;2022-07-23T11:37:34;33.10;82.90
31735;DHT22;18313;48.518;9.124;2022-07-23T11:40:22;33.30;81.90
31735;DHT22;18313;48.518;9.124;2022-07-23T11:43:10;33.10;77.80
31735;DHT22;18313;48.518;9.124;2022-07-23T11:45:59;32.70;78.20
31735;DHT22;18313;48.518;9.124;2022-07-23T11:48:46;32.20;81.10
31735;DHT22;18313;48.518;9.124;2022-07-23T11:51:32;31.50;80.00
31735;DHT22;18313;48.518;9.124;2022-07-23T11:54:19;31.40;83.60
31735;DHT22;18313;48.518;9.124;2022-07-23T11:57:06;31.70;79.90
31735;DHT22;18313;48.518;9.124;2022-07-23T11:59:55;31.80;82.00
31735;DHT22;18313;48.518;9.124;2022-07-23T12:02:51;32.10;79.30
31735;DHT22;18313;48.518;9.124;2022-07-23T12:05:39;32.30;77.50
31735;DHT22;18313;48.518;9.124;2022-07-23T12:08:26;32.30;77.80
31735;DHT22;18313;48.518;9.124;2022-07-23T12:11:13;32.60;79.50
31735;DHT22;18313;48.518;9.124;2022-07-23T12:14:00;33.10;78.60
31735;DHT22;18313;48.518;9.124;2022-07-23T12:17:07;33.20;77.10
31735;DHT22;18313;48.518;9.124;2022-07-23T12:19:54;33.60;77.20
31735;DHT22;18313;48.518;9.124;2022-07-23T12:22:47;34.00;75.80
31735;DHT22;18313;48.518;9.124;2022-07-23T12:25:38;34.40;72.70
31735;DHT22;18313;48.518;9.124;2022-07-23T12:28:31;35.10;72.90
31735;DHT22;18313;48.518;9.124;2022-07-23T12:31:26;35.30;72.30
31735;DHT22;18313;48.518;9.124;2022-07-23T12:34:14;35.60;72.70
31735;DHT22;18313;48.518;9.124;2022-07-23T12:37:02;35.60;70.10
31735;DHT22;18313;48.518;9.124;2022-07-23T12:39:49;35.70;70.70
31735;DHT22;18313;48.518;9.124;2022-07-23T12:42:42;35.80;70.00
31735;DHT22;18313;48.518;9.124;2022-07-23T12:45:46;35.00;67.80
31735;DHT22;18313;48.518;9.124;2022-07-23T12:48:51;34.60;71.90
31735;DHT22;18313;48.518;9.124;2022-07-23T12:51:44;34.40;70.70
31735;DHT22;18313;48.518;9.124;2022-07-23T12:54:32;34.50;70.70
31735;DHT22;18313;48.518;9.124;2022-07-23T12:57:19;34.50;70.70
31735;DHT22;18313;48.518;9.124;2022-07-23T13:00:27;34.60;68.20
31735;DHT22;18313;48.518;9.124;2022-07-23T13:03:32;34.10;68.50
31735;DHT22;18313;48.518;9.124;2022-07-23T13:06:25;33.50;68.80
31735;DHT22;18313;48.518;9.124;2022-07-23T13:09:18;33.70;72.50
31735;DHT22;18313;48.518;9.124;2022-07-23T13:12:05;34.00;70.80
31735;DHT22;18313;48.518;9.124;2022-07-23T13:14:53;34.00;68.20
31735;DHT22;18313;48.518;9.124;2022-07-23T13:17:39;34.20;70.70
31735;DHT22;18313;48.518;9.124;2022-07-23T13:20:26;34.40;68.60
31735;DHT22;18313;48.518;9.124;2022-07-23T13:23:15;34.50;68.10
31735;DHT22;18313;48.518;9.124;2022-07-23T13:26:03;34.20;69.50
31735;DHT22;18313;48.518;9.124;2022-07-23T13:28:51;34.40;69.60
31735;DHT22;18313;48.518;9.124;2022-07-23T13:31:38;34.70;67.70
31735;DHT22;18313;48.518;9.124;2022-07-23T13:34:26;34.30;69.10
31735;DHT22;18313;48.518;9.124;2022-07-23T13:37:13;33.70;68.80
31735;DHT22;18313;48.518;9.124;2022-07-23T13:40:01;33.30;70.10
31735;DHT22;18313;48.518;9.124;2022-07-23T13:43:02;32.90;69.80
31735;DHT22;18313;48.518;9.124;2022-07-23T13:45:53;32.60;70.50
31735;DHT22;18313;48.518;9.124;2022-07-23T13:48:40;31.60;72.20
31735;DHT22;18313;48.518;9.124;2022-07-23T13:51:28;31.30;71.20
31735;DHT22;18313;48.518;9.124;2022-07-23T13:54:15;30.90;73.20
31735;DHT22;18313;48.518;9.124;2022-07-23T13:57:02;30.30;73.30
31735;DHT22;18313;48.518;9.124;2022-07-23T13:59:51;29.90;74.90
31735;DHT22;18313;48.518;9.124;2022-07-23T14:02:39;29.80;80.00
31735;DHT22;18313;48.518;9.124;2022-07-23T14:05:28;30.00;80.10
31735;DHT22;18313;48.518;9.124;2022-07-23T14:08:15;30.30;82.70
31735;DHT22;18313;48.518;9.124;2022-07-23T14:11:02;30.60;81.30
31735;DHT22;18313;48.518;9.124;2022-07-23T14:13:53;30.80;81.30
31735;DHT22;18313;48.518;9.124;2022-07-23T14:16:40;30.90;79.60
31735;DHT22;18313;48.518;9.124;2022-07-23T14:19:28;31.00;80.40
31735;DHT22;18313;48.518;9.124;2022-07-23T14:22:17;31.00;79.20
31735;DHT22;18313;48.518;9.124;2022-07-23T14:25:08;31.00;77.40
31735;DHT22;18313;48.518;9.124;2022-07-23T14:27:56;30.80;78.80
31735;DHT22;18313;48.518;9.124;2022-07-23T14:30:43;30.80;78.70
31735;DHT22;18313;48.518;9.124;2022-07-23T14:33:30;30.50;78.10
31735;DHT22;18313;48.518;9.124;2022-07-23T14:36:17;30.10;78.40
31735;DHT22;18313;48.518;9.124;2022-07-23T14:39:04;29.80;80.10
31735;DHT22;18313;48.518;9.124;2022-07-23T14:41:54;29.70;80.90
31735;DHT22;18313;48.518;9.124;2022-07-23T14:44:41;29.60;79.80
31735;DHT22;18313;48.518;9.124;2022-07-23T14:47:29;29.80;78.30
31735;DHT22;18313;48.518;9.124;2022-07-23T14:50:15;29.90;77.90
31735;DHT22;18313;48.518;9.124;2022-07-23T14:53:03;30.00;78.10
31735;DHT22;18313;48.518;9.124;2022-07-23T14:55:50;30.30;77.90
31735;DHT22;18313;48.518;9.124;2022-07-23T14:58:37;30.60;77.80
31735;DHT22;18313;48.518;9.124;2022-07-23T15:01:24;30.90;75.70
31735;DHT22;18313;48.518;9.124;2022-07-23T15:04:12;31.10;76.10
31735;DHT22;18313;48.518;9.124;2022-07-23T15:07:19;31.40;75.20
31735;DHT22;18313;48.518;9.124;2022-07-23T15:10:06;31.80;73.30
31735;DHT22;18313;48.518;9.124;2022-07-23T15:12:55;32.00;73.60
31735;DHT22;18313;48.518;9.124;2022-07-23T15:15:44;32.30;74.00
31735;DHT22;18313;48.518;9.124;2022-07-23T15:18:40;32.40;72.00
31735;DHT22;18313;48.518;9.124;2022-07-23T15:21:27;32.50;72.70
31735;DHT22;18313;48.518;9.124;2022-07-23T15:24:16;32.30;71.90
31735;DHT22;18313;48.518;9.124;2022-07-23T15:27:03;32.70;72.90
31735;DHT22;18313;48.518;9.124;2022-07-23T15:29:50;32.90;71.00
31735;DHT22;18313;48.518;9.124;2022-07-23T15:32:37;32.90;72.00
31735;DHT22;18313;48.518;9.124;2022-07-23T15:35:24;33.10;70.20
31735;DHT22;18313;48.518;9.124;2022-07-23T15:38:10;33.10;70.10
31735;DHT22;18313;48.518;9.124;2022-07-23T15:40:59;32.70;69.90
31735;DHT22;18313;48.518;9.124;2022-07-23T15:43:45;32.50;71.00
31735;DHT22;18313;48.518;9.124;2022-07-23T15:46:33;32.50;71.00
31735;DHT22;18313;48.518;9.124;2022-07-23T15:49:20;32.50;69.80
31735;DHT22;18313;48.518;9.124;2022-07-23T15:52:07;32.30;69.80
31735;DHT22;18313;48.518;9.124;2022-07-23T15:54:56;32.10;70.80
31735;DHT22;18313;48.518;9.124;2022-07-23T15:57:43;31.90;70.60
31735;DHT22;18313;48.518;9.124;2022-07-23T16:00:30;31.70;71.80
31735;DHT22;18313;48.518;9.124;2022-07-23T16:03:17;31.30;71.80
31735;DHT22;18313;48.518;9.124;2022-07-23T16:06:05;31.20;72.60
31735;DHT22;18313;48.518;9.124;2022-07-23T16:09:03;30.90;73.00
31735;DHT22;18313;48.518;9.124;2022-07-23T16:11:53;30.70;73.10
31735;DHT22;18313;48.518;9.124;2022-07-23T16:14:42;30.50;74.20
31735;DHT22;18313;48.518;9.124;2022-07-23T16:17:29;30.30;74.10
31735;DHT22;18313;48.518;9.124;2022-07-23T16:20:16;30.30;74.00
31735;DHT22;18313;48.518;9.124;2022-07-23T16:23:04;30.20;73.50
31735;DHT22;18313;48.518;9.124;2022-07-23T16:25:51;30.00;75.00
31735;DHT22;18313;48.518;9.124;2022-07-23T16:28:39;30.10;75.30
31735;DHT22;18313;48.518;9.124;2022-07-23T16:31:26;30.00;75.00
31735;DHT22;18313;48.518;9.124;2022-07-23T16:34:13;29.90;74.50
31735;DHT22;18313;48.518;9.124;2022-07-23T16:37:01;29.80;74.20
31735;DHT22;18313;48.518;9.124;2022-07-23T16:39:48;29.80;75.30
31735;DHT22;18313;48.518;9.124;2022-07-23T16:42:35;29.80;75.50
31735;DHT22;18313;48.518;9.124;2022-07-23T16:45:22;29.80;75.20
31735;DHT22;18313;48.518;9.124;2022-07-23T16:48:09;29.70;75.30
31735;DHT22;18313;48.518;9.124;2022-07-23T16:50:55;29.70;75.30
31735;DHT22;18313;48.518;9.124;2022-07-23T16:53:42;29.60;76.20
31735;DHT22;18313;48.518;9.124;2022-07-23T16:56:29;29.70;75.30
31735;DHT22;18313;48.518;9.124;2022-07-23T16:59:22;29.80;74.90
31735;DHT22;18313;48.518;9.124;2022-07-23T17:02:10;30.00;74.60
31735;DHT22;18313;48.518;9.124;2022-07-23T17:04:57;30.20;74.40
31735;DHT22;18313;48.518;9.124;2022-07-23T17:07:44;30.20;73.30
31735;DHT22;18313;48.518;9.124;2022-07-23T17:10:31;30.20;74.90
31735;DHT22;18313;48.518;9.124;2022-07-23T17:13:19;30.20;74.70
31735;DHT22;18313;48.518;9.124;2022-07-23T17:16:06;30.10;73.60
31735;DHT22;18313;48.518;9.124;2022-07-23T17:18:53;30.10;75.50
31735;DHT22;18313;48.518;9.124;2022-07-23T17:21:40;30.20;73.50
31735;DHT22;18313;48.518;9.124;2022-07-23T17:24:27;30.20;73.80
31735;DHT22;18313;48.518;9.124;2022-07-23T17:27:14;30.20;73.80
31735;DHT22;18313;48.518;9.124;2022-07-23T17:30:04;30.10;74.10
31735;DHT22;18313;48.518;9.124;2022-07-23T17:32:51;30.00;73.90
31735;DHT22;18313;48.518;9.124;2022-07-23T17:35:40;30.10;73.30
31735;DHT22;18313;48.518;9.124;2022-07-23T17:38:27;30.10;72.10
31735;DHT22;18313;48.518;9.124;2022-07-23T17:41:15;30.20;72.50
31735;DHT22;18313;48.518;9.124;2022-07-23T17:44:02;29.90;72.30
31735;DHT22;18313;48.518;9.124;2022-07-23T17:46:49;30.00;72.90
31735;DHT22;18313;48.518;9.124;2022-07-23T17:49:36;30.10;72.50
31735;DHT22;18313;48.518;9.124;2022-07-23T17:52:23;30.30;71.70
31735;DHT22;18313;48.518;9.124;2022-07-23T17:55:10;30.30;72.10
31735;DHT22;18313;48.518;9.124;2022-07-23T17:58:06;30.30;72.00
31735;DHT22;18313;48.518;9.124;2022-07-23T18:00:53;30.40;72.00
31735;DHT22;18313;48.518;9.124;2022-07-23T18:03:41;30.50;71.80
31735;DHT22;18313;48.518;9.124;2022-07-23T18:06:30;30.50;72.30